Text Box: All records at near 07:00 local time
Kleivo 1 weather for May 2010
Month no. 42
Obs.
Da.
Temp. Dew Point Precip. Wind
Speed
Wind gusts Cloud cover Press. Humidity Wind dir. Sunny OPT
01.05.2010 4,8 3,6 2,5 33,8 33,8 8 996,5 92,0 0,0 1 55,0 %
02.05.2010 -0,1 -1,7 2,6 0,0 0,0 3 994,5 89,0 0,0 1 60,0 %
03.05.2010 -0,1 -1,8 0,0 0,0 0,0 8 1000,6 88,0 292,5 1 72,5 %
04.05.2010 0,2 -2,7 0,0 7,4 7,4 8 1001,6 81,0 225,0 1 70,0 %
05.05.2010 2,3 -4,7 0,0 0,0 0,0 10 1002,9 60,0 337,5 1 80,0 %
06.05.2010 5,3 1,4 0,0 5,6 5,6 1 998,2 76,0 157,5   60,0 %
07.05.2010 4,3 -0,7 0,0 5,8 5,8 3 1003,6 70,0 0,0 1 62,5 %
08.05.2010 1,6 -0,7 0,0 5,6 5,6 10 998,9 85,0 0,0 1 77,5 %
09.05.2010 3,4 1,3 0,0 3,7 4,0 10 990,4 86,0 270,0 1 80,0 %
10.05.2010 -0,6 -2,5 0,0 0,0 0,0 3 986,3 87,0 67,5 1 60,0 %
11.05.2010 1,9 0,3 2,6 3,7 3,7 2 990,7 89,0 180,0   57,5 %
12.05.2010 3,2 1,6 2,5 2,6 2,6 8 998,2 89,0 112,5 1 77,5 %
13.05.2010 1,6 -0,2 0,0 7,6 7,6 10 992,8 88,0 0,0 1 75,0 %
14.05.2010 12,6 4,8 0,0 5,6 5,6 10 992,8 59,0 157,5 1 90,0 %
15.05.2010 3,8 2,3 0,0 0,0 0,0 10 992,4 90,0 0,0 1 82,5 %
16.05.2010 7,2 5,5 0,0 5,6 5,6 10 985,3 89,0 337,5 1 82,5 %
17.05.2010 6,6 5,1 20,5 3,7 0,0 2 995,1 90,0 0,0   47,5 %
18.05.2010 5,9 4,4 0,5 1,9 1,9 2 1005,0 90,0 225,0   65,0 %
19.05.2010 7,2 5,7 0,5 0,0 0,0 1 1006,3 90,0 315,0   62,5 %
20.05.2010 7,9 6,3 0,0 0,0 0,0 8 1008,4 90,0 0,0 1 82,5 %
21.05.2010 7,7 6,0 0,0 0,0 0,0 10 1009,4 89,0 67,5 1 87,5 %
22.05.2010 11,3 9,6 0,0 0,0 0,0 10 1008,4 89,0 315,0 1 90,0 %
23.05.2010 9,4 7,8 1,0 9,3 9,3 10 1000,6 90,0 0,0 1 82,5 %
24.05.2010 8,4 6,8 0,5 0,0 0,0 6 988,0 90,0   1 77,5 %
25.05.2010 6,7 3,5 0,5 13,0 13,0 1 986,3 80,0 292,5   55,0 %
26.05.2010 5,8 3,4 0,5 0,0 0,0 3 989,1 85,0 22,5 1 67,5 %
27.05.2010 4,9 3,4 0,5 7,4 7,4 8 988,7 90,0 112,5 1 72,5 %
28.05.2010 8,9 3,7 0,5 6,1 6,1 3 988,0 70,0 135,0 1 67,5 %
29.05.2010 8,2 6,5 0,0 0,0 0,0 8 992,4 89,0 90,0 1 82,5 %
30.05.2010 6,6 5,1 0,0 1,9 1,9 8 990,7 90,0 0,0 1 80,0 %
31.05.2010 8,2 6,5 0,0 1,9 1,9 8 997,2 89,0 337,5 1 82,5 %
Avrg/Sum 5,3 2,9 35,2 4,3 4,2 6,5 996,1 84,8 135,0 25 72,4 %